createdAt,value
2022-12-04T00:01:12.280Z,13.67
2022-12-04T00:03:39.502Z,14.03
2022-12-04T00:06:17.230Z,13.53
2022-12-04T00:08:46.241Z,13.30
2022-12-04T00:11:16.035Z,15.23
2022-12-04T00:13:43.525Z,14.70
2022-12-04T00:16:17.418Z,13.60
2022-12-04T00:18:45.037Z,13.33
2022-12-04T00:21:15.928Z,13.60
2022-12-04T00:23:43.558Z,15.00
2022-12-04T00:26:19.660Z,14.87
2022-12-04T00:28:47.219Z,12.77
2022-12-04T00:31:19.009Z,13.17
2022-12-04T00:33:46.925Z,12.80
2022-12-04T00:36:17.316Z,14.30
2022-12-04T00:38:44.943Z,14.13
2022-12-04T00:41:18.671Z,13.07
2022-12-04T00:43:45.945Z,12.30
2022-12-04T00:46:13.179Z,13.13
2022-12-04T00:48:41.161Z,13.37
2022-12-04T00:51:12.177Z,12.47
2022-12-04T00:53:39.499Z,12.83
2022-12-04T00:56:14.185Z,14.27
2022-12-04T00:58:41.721Z,14.03
2022-12-04T01:01:18.972Z,14.97
2022-12-04T01:03:46.886Z,12.33
2022-12-04T01:06:33.298Z,15.23
2022-12-04T01:09:04.323Z,16.07
2022-12-04T01:11:32.571Z,15.33
2022-12-04T01:14:00.408Z,14.23
2022-12-04T01:16:39.484Z,14.73
2022-12-04T01:19:10.408Z,13.77
2022-12-04T01:21:38.086Z,14.33
2022-12-04T01:24:05.785Z,15.13
2022-12-04T01:26:32.947Z,13.80
2022-12-04T01:29:00.022Z,14.77
2022-12-04T01:31:27.244Z,14.10
2022-12-04T01:33:54.401Z,13.03
2022-12-04T01:36:25.928Z,14.23
2022-12-04T01:38:53.225Z,14.13
2022-12-04T01:41:27.884Z,13.63
2022-12-04T01:44:27.297Z,12.43
2022-12-04T01:47:01.642Z,13.17
2022-12-04T01:49:38.684Z,13.60
2022-12-04T01:52:16.470Z,12.57
2022-12-04T01:54:49.741Z,12.93
2022-12-04T01:57:22.976Z,13.60
2022-12-04T01:59:58.598Z,14.57
2022-12-04T02:02:39.507Z,14.07
2022-12-04T02:05:16.093Z,13.77
2022-12-04T02:07:45.793Z,13.67
2022-12-04T02:10:13.875Z,15.43
2022-12-04T02:13:05.167Z,13.90
2022-12-04T02:15:50.107Z,13.57
2022-12-04T02:18:22.748Z,13.03
2022-12-04T02:21:13.934Z,12.53
2022-12-04T02:24:07.262Z,13.70
2022-12-04T02:26:59.929Z,14.17
2022-12-04T02:29:52.184Z,13.63
2022-12-04T02:32:44.115Z,13.80
2022-12-04T02:35:30.604Z,13.70
2022-12-04T02:38:17.696Z,14.93
2022-12-04T02:41:38.450Z,14.60
2022-12-04T02:44:23.117Z,14.23
2022-12-04T02:46:57.799Z,13.70
2022-12-04T02:49:35.436Z,13.93
2022-12-04T02:52:03.776Z,13.53
2022-12-04T02:54:42.637Z,13.87
2022-12-04T02:57:18.845Z,12.73
2022-12-04T02:59:49.316Z,13.13
2022-12-04T03:02:34.242Z,13.23
2022-12-04T03:05:09.442Z,13.20
2022-12-04T03:08:00.075Z,13.00
2022-12-04T03:10:34.333Z,14.33
2022-12-04T03:13:20.740Z,13.20
2022-12-04T03:15:53.710Z,12.03
2022-12-04T03:18:26.975Z,13.63
2022-12-04T03:21:05.401Z,13.30
2022-12-04T03:23:45.720Z,13.40
2022-12-04T03:26:33.057Z,13.40
2022-12-04T03:29:39.570Z,12.90
2022-12-04T03:32:52.211Z,12.83
2022-12-04T03:35:37.079Z,13.47
2022-12-04T03:38:38.514Z,13.53
2022-12-04T03:41:33.761Z,12.70
2022-12-04T03:44:23.445Z,13.73
2022-12-04T03:47:01.065Z,12.53
2022-12-04T03:49:44.979Z,12.77
2022-12-04T03:53:13.405Z,12.90
2022-12-04T03:55:58.751Z,13.80
2022-12-04T03:58:32.580Z,12.10
2022-12-04T04:01:04.134Z,13.17
2022-12-04T04:03:39.737Z,13.70
2022-12-04T04:06:12.704Z,12.60
2022-12-04T04:08:44.028Z,13.50
2022-12-04T04:11:22.497Z,13.50
2022-12-04T04:14:40.389Z,13.20
2022-12-04T04:17:34.924Z,11.50
2022-12-04T04:20:29.016Z,12.37
2022-12-04T04:23:18.223Z,13.30
2022-12-04T04:25:47.295Z,11.70
2022-12-04T04:28:39.493Z,12.70
2022-12-04T04:31:09.042Z,12.90
2022-12-04T04:33:48.773Z,14.20
2022-12-04T04:36:38.226Z,13.03
2022-12-04T04:39:11.041Z,11.80
2022-12-04T04:41:57.164Z,11.43
2022-12-04T04:44:54.414Z,11.30
2022-12-04T04:47:30.591Z,12.60
2022-12-04T04:50:02.043Z,12.07
2022-12-04T04:52:30.257Z,12.63
2022-12-04T04:55:00.016Z,11.13
2022-12-04T04:57:35.844Z,12.00
2022-12-04T05:00:09.752Z,12.07
2022-12-04T05:02:37.120Z,11.90
2022-12-04T05:05:06.129Z,12.67
2022-12-04T05:07:33.068Z,12.60
2022-12-04T05:09:59.995Z,12.03
2022-12-04T05:12:26.937Z,12.40
2022-12-04T05:14:53.815Z,12.63
2022-12-04T05:17:20.751Z,11.97
2022-12-04T05:19:53.788Z,13.03
2022-12-04T05:22:25.996Z,12.20
2022-12-04T05:24:53.480Z,12.30
2022-12-04T05:27:22.313Z,13.17
2022-12-04T05:29:49.425Z,10.77
2022-12-04T05:32:16.325Z,11.60
2022-12-04T05:34:44.056Z,11.37
2022-12-04T05:37:11.048Z,11.53
2022-12-04T05:39:37.962Z,11.87
2022-12-04T05:42:04.870Z,12.63
2022-12-04T05:44:31.821Z,12.40
2022-12-04T05:46:58.777Z,11.07
2022-12-04T05:49:29.230Z,12.50
2022-12-04T05:51:56.526Z,11.40
2022-12-04T05:54:24.753Z,11.30
2022-12-04T05:56:51.957Z,11.90
2022-12-04T05:59:19.110Z,11.30
2022-12-04T06:01:46.919Z,11.87
2022-12-04T06:04:13.981Z,10.73
2022-12-04T06:06:40.957Z,12.03
2022-12-04T06:09:09.230Z,11.43
2022-12-04T06:11:38.642Z,11.30
2022-12-04T06:14:10.315Z,11.90
2022-12-04T06:16:41.657Z,12.80
2022-12-04T06:19:16.444Z,11.17
2022-12-04T06:21:46.076Z,12.53
2022-12-04T06:24:21.818Z,12.73
2022-12-04T06:27:18.710Z,12.57
2022-12-04T06:29:37.065Z,10.90
2022-12-04T06:32:04.463Z,12.07
2022-12-04T06:34:32.422Z,11.17
2022-12-04T06:36:59.334Z,10.77
2022-12-04T06:39:26.330Z,11.07
2022-12-04T06:41:53.250Z,11.33
2022-12-04T06:44:20.192Z,11.20
2022-12-04T06:46:50.082Z,11.00
2022-12-04T06:49:17.361Z,11.10
2022-12-04T06:51:44.226Z,10.50
2022-12-04T06:54:13.089Z,10.77
2022-12-04T06:56:40.053Z,11.87
2022-12-04T06:59:07.008Z,11.40
2022-12-04T07:01:34.996Z,11.87
2022-12-04T07:04:04.358Z,10.87
2022-12-04T07:06:37.729Z,11.03
2022-12-04T07:09:15.489Z,11.40
2022-12-04T07:11:43.674Z,11.77
2022-12-04T07:14:12.389Z,11.17
2022-12-04T07:16:42.256Z,10.80
2022-12-04T07:19:14.526Z,10.50
2022-12-04T07:21:42.673Z,12.63
2022-12-04T07:24:16.957Z,11.53
2022-12-04T07:26:44.092Z,10.90
2022-12-04T07:29:11.009Z,9.93
2022-12-04T07:31:38.626Z,10.93
2022-12-04T07:34:05.697Z,10.70
2022-12-04T07:36:32.629Z,10.33
2022-12-04T07:38:59.802Z,10.70
2022-12-04T07:41:26.705Z,10.57
2022-12-04T07:43:54.464Z,11.53
2022-12-04T07:46:25.792Z,10.93
2022-12-04T07:48:55.254Z,10.90
2022-12-04T07:51:25.577Z,10.43
2022-12-04T07:53:54.071Z,10.77
2022-12-04T07:56:21.746Z,11.83
2022-12-04T07:58:48.653Z,10.77
2022-12-04T08:01:22.721Z,12.07
2022-12-04T08:03:52.714Z,10.70
2022-12-04T08:06:22.268Z,9.93
2022-12-04T08:08:49.903Z,9.80
2022-12-04T08:11:22.413Z,10.87
2022-12-04T08:13:57.106Z,9.97
2022-12-04T08:16:25.451Z,11.33
2022-12-04T08:18:54.272Z,9.73
2022-12-04T08:21:24.993Z,9.80
2022-12-04T08:23:53.969Z,10.13
2022-12-04T08:26:22.853Z,10.90
2022-12-04T08:28:53.067Z,10.50
2022-12-04T08:31:24.661Z,10.43
2022-12-04T08:33:55.354Z,10.63
2022-12-04T08:36:23.108Z,10.00
2022-12-04T08:38:50.900Z,9.47
2022-12-04T08:41:21.313Z,10.10
2022-12-04T08:43:48.231Z,10.73
2022-12-04T08:46:17.777Z,10.63
2022-12-04T08:48:45.817Z,10.47
2022-12-04T08:51:19.730Z,10.57
2022-12-04T08:53:46.732Z,9.83
2022-12-04T08:56:14.587Z,9.90
2022-12-04T08:58:41.497Z,9.40
2022-12-04T09:01:12.725Z,10.27
2022-12-04T09:03:40.612Z,9.57
2022-12-04T09:06:11.050Z,9.23
2022-12-04T09:08:38.769Z,9.10
2022-12-04T09:11:21.157Z,9.57
2022-12-04T09:13:48.742Z,8.60
2022-12-04T09:16:22.786Z,8.60
2022-12-04T09:18:50.997Z,9.33
2022-12-04T09:21:20.862Z,8.07
2022-12-04T09:23:48.211Z,9.80
2022-12-04T09:26:31.038Z,10.20
2022-12-04T09:29:00.800Z,9.10
2022-12-04T09:31:28.513Z,9.43
2022-12-04T09:33:58.280Z,8.37
2022-12-04T09:36:25.365Z,8.93
2022-12-04T09:38:54.072Z,9.37
2022-12-04T09:42:27.304Z,8.90
2022-12-04T09:45:05.479Z,9.70
2022-12-04T09:47:42.810Z,9.00
2022-12-04T09:50:42.668Z,9.67
2022-12-04T09:53:12.106Z,10.40
2022-12-04T09:56:10.037Z,9.13
2022-12-04T09:58:54.012Z,9.67
2022-12-04T10:01:56.133Z,9.33
2022-12-04T10:04:23.150Z,8.97
2022-12-04T10:07:20.439Z,9.63
2022-12-04T10:09:56.616Z,9.60
2022-12-04T10:13:03.757Z,9.67
2022-12-04T10:15:47.088Z,10.23
2022-12-04T10:18:29.393Z,9.40
2022-12-04T10:21:40.770Z,9.40
2022-12-04T10:24:16.989Z,9.60
2022-12-04T10:26:49.159Z,9.30
2022-12-04T10:29:24.689Z,10.37
2022-12-04T10:31:55.102Z,9.83
2022-12-04T10:34:29.311Z,9.30
2022-12-04T10:37:06.681Z,9.53
2022-12-04T10:39:45.180Z,9.57
2022-12-04T10:42:39.854Z,9.60
2022-12-04T10:45:08.061Z,9.97
2022-12-04T10:47:35.891Z,8.20
2022-12-04T10:50:14.292Z,9.10
2022-12-04T10:52:41.225Z,8.83
2022-12-04T10:55:08.609Z,9.43
2022-12-04T10:57:42.218Z,9.03
2022-12-04T11:00:33.798Z,9.20
2022-12-04T11:03:08.950Z,8.33
2022-12-04T11:05:45.599Z,9.37
2022-12-04T11:08:27.054Z,9.30
2022-12-04T11:11:07.332Z,9.17
2022-12-04T11:13:34.707Z,9.07
2022-12-04T11:16:01.623Z,9.00
2022-12-04T11:18:48.319Z,9.90
2022-12-04T11:21:17.618Z,9.67
2022-12-04T11:23:48.645Z,11.70
2022-12-04T11:26:17.706Z,11.30
2022-12-04T11:28:53.841Z,12.50
2022-12-04T11:31:23.062Z,12.03
2022-12-04T11:34:02.178Z,12.40
2022-12-04T11:36:36.958Z,13.20
2022-12-04T11:39:12.864Z,13.77
2022-12-04T11:41:40.217Z,13.17
2022-12-04T11:44:22.848Z,11.50
2022-12-04T11:46:55.513Z,12.50
2022-12-04T11:49:25.954Z,12.57
2022-12-04T11:52:42.489Z,12.83
2022-12-04T11:55:43.522Z,12.30
2022-12-04T11:59:03.552Z,13.50
2022-12-04T12:02:00.205Z,13.40
2022-12-04T12:04:54.607Z,12.50
2022-12-04T12:07:41.563Z,12.50
2022-12-04T12:10:48.450Z,12.23
2022-12-04T12:13:52.102Z,14.23
2022-12-04T12:16:48.139Z,13.13
2022-12-04T12:19:44.297Z,14.63
2022-12-04T12:22:41.274Z,13.60
2022-12-04T12:25:27.866Z,13.40
2022-12-04T12:28:31.185Z,14.03
2022-12-04T12:31:25.296Z,14.10
2022-12-04T12:34:05.551Z,14.40
2022-12-04T12:36:43.731Z,13.90
2022-12-04T12:39:24.158Z,14.60
2022-12-04T12:41:56.782Z,15.00
2022-12-04T12:44:44.224Z,13.47
2022-12-04T12:47:19.745Z,14.33
2022-12-04T12:49:59.158Z,15.70
2022-12-04T12:52:45.869Z,14.57
2022-12-04T12:55:28.277Z,14.17
2022-12-04T12:58:21.296Z,14.53
2022-12-04T13:01:25.383Z,13.63
2022-12-04T13:04:10.966Z,14.03
2022-12-04T13:06:43.223Z,15.10
2022-12-04T13:09:29.952Z,13.40
2022-12-04T13:12:10.222Z,14.93
2022-12-04T13:14:37.266Z,15.33
2022-12-04T13:17:14.547Z,13.83
2022-12-04T13:19:49.612Z,14.67
2022-12-04T13:22:57.483Z,13.87
2022-12-04T13:26:01.301Z,15.10
2022-12-04T13:29:08.522Z,14.83
2022-12-04T13:31:53.689Z,14.43
2022-12-04T13:35:25.434Z,13.67
2022-12-04T13:38:19.900Z,16.00
2022-12-04T13:41:03.133Z,15.40
2022-12-04T13:43:41.808Z,15.80
2022-12-04T13:46:34.242Z,13.77
2022-12-04T13:49:17.178Z,14.03
2022-12-04T13:51:49.380Z,14.60
2022-12-04T13:54:16.228Z,14.60
2022-12-04T13:56:47.611Z,14.93
2022-12-04T13:59:36.177Z,14.10
2022-12-04T14:02:25.964Z,14.80
2022-12-04T14:05:08.146Z,15.20
2022-12-04T14:07:37.530Z,14.93
2022-12-04T14:10:27.049Z,15.00
2022-12-04T14:13:15.793Z,13.93
2022-12-04T14:15:42.877Z,14.13
2022-12-04T14:18:12.637Z,14.10
2022-12-04T14:20:41.905Z,14.57
2022-12-04T14:23:19.937Z,15.00
2022-12-04T14:25:47.050Z,14.37
2022-12-04T14:28:41.688Z,15.47
2022-12-04T14:31:14.880Z,14.00
2022-12-04T14:33:52.276Z,14.70
2022-12-04T14:36:27.359Z,14.93
2022-12-04T14:39:18.816Z,15.23
2022-12-04T14:41:45.882Z,15.07
2022-12-04T14:44:33.063Z,17.20
2022-12-04T14:47:15.311Z,14.73
2022-12-04T14:50:15.206Z,15.27
2022-12-04T14:53:15.374Z,14.53
2022-12-04T14:56:27.345Z,14.90
2022-12-04T14:58:55.216Z,14.27
2022-12-04T15:01:37.716Z,15.13
2022-12-04T15:04:33.777Z,15.20
2022-12-04T15:07:01.214Z,15.30
2022-12-04T15:09:47.527Z,15.77
2022-12-04T15:12:34.656Z,16.07
2022-12-04T15:15:29.215Z,15.33
2022-12-04T15:18:17.759Z,15.97
2022-12-04T15:20:53.660Z,15.83
2022-12-04T15:23:41.389Z,15.70
2022-12-04T15:26:20.898Z,15.73
2022-12-04T15:29:03.556Z,15.30
2022-12-04T15:31:38.619Z,15.93
2022-12-04T15:34:16.235Z,15.80
2022-12-04T15:37:23.232Z,16.67
2022-12-04T15:39:52.656Z,16.17
2022-12-04T15:42:28.161Z,15.83
2022-12-04T15:45:09.511Z,16.37
2022-12-04T15:47:42.639Z,16.10
2022-12-04T15:50:15.619Z,17.67
2022-12-04T15:53:01.946Z,16.13
2022-12-04T15:55:37.814Z,15.80
2022-12-04T15:58:31.496Z,17.13
2022-12-04T16:01:11.441Z,16.00
2022-12-04T16:03:48.902Z,15.87
2022-12-04T16:06:21.881Z,16.43
2022-12-04T16:08:52.937Z,16.73
2022-12-04T16:11:20.282Z,17.40
2022-12-04T16:14:07.650Z,18.50
2022-12-04T16:16:36.565Z,18.60
2022-12-04T16:19:33.096Z,17.40
2022-12-04T16:22:03.140Z,17.20
2022-12-04T16:24:30.681Z,17.07
2022-12-04T16:27:00.065Z,17.80
2022-12-04T16:29:27.142Z,17.60
2022-12-04T16:31:57.184Z,16.80
2022-12-04T16:34:29.560Z,16.33
2022-12-04T16:36:56.603Z,18.00
2022-12-04T16:39:23.463Z,17.37
2022-12-04T16:41:50.326Z,19.00
2022-12-04T16:44:18.404Z,17.63
2022-12-04T16:46:45.443Z,18.30
2022-12-04T16:49:13.399Z,18.70
2022-12-04T16:51:46.878Z,17.73
2022-12-04T16:54:14.056Z,16.97
2022-12-04T16:56:41.728Z,18.33
2022-12-04T16:59:11.873Z,18.10
2022-12-04T17:01:48.389Z,18.10
2022-12-04T17:04:16.869Z,18.33
2022-12-04T17:06:44.813Z,19.20
2022-12-04T17:09:13.922Z,18.50
2022-12-04T17:11:41.874Z,18.70
2022-12-04T17:14:09.476Z,17.40
2022-12-04T17:16:41.050Z,17.57
2022-12-04T17:19:09.689Z,18.33
2022-12-04T17:21:36.814Z,19.43
2022-12-04T17:24:04.245Z,17.30
2022-12-04T17:26:31.190Z,18.47
2022-12-04T17:28:58.384Z,19.33
2022-12-04T17:31:26.921Z,19.90
2022-12-04T17:33:54.126Z,20.75
2022-12-04T17:36:25.032Z,21.77
2022-12-04T17:38:57.511Z,21.87
2022-12-04T17:41:24.965Z,20.00
2022-12-04T17:43:51.933Z,20.67
2022-12-04T17:46:24.213Z,19.93
2022-12-04T17:48:51.319Z,20.47
2022-12-04T17:51:21.470Z,20.83
2022-12-04T17:53:49.029Z,20.70
2022-12-04T17:56:21.206Z,20.13
2022-12-04T17:58:49.018Z,19.43
2022-12-04T18:01:24.157Z,21.20
2022-12-04T18:03:57.667Z,20.17
2022-12-04T18:06:40.924Z,19.37
2022-12-04T18:09:11.314Z,19.10
2022-12-04T18:11:41.521Z,19.57
2022-12-04T18:14:12.929Z,21.57
2022-12-04T18:16:46.870Z,20.60
2022-12-04T18:19:15.114Z,21.30
2022-12-04T18:21:42.213Z,19.73
2022-12-04T18:24:09.573Z,21.57
2022-12-04T18:26:44.004Z,20.30
2022-12-04T18:29:15.395Z,20.20
2022-12-04T18:31:42.588Z,20.03
2022-12-04T18:34:10.462Z,19.57
2022-12-04T18:36:40.040Z,19.40
2022-12-04T18:39:13.248Z,20.87
2022-12-04T18:41:40.655Z,18.97
2022-12-04T18:44:07.565Z,19.77
2022-12-04T18:46:34.784Z,19.53
2022-12-04T18:49:02.203Z,18.90
2022-12-04T18:51:42.877Z,19.53
2022-12-04T18:54:20.703Z,19.47
2022-12-04T18:56:48.220Z,19.97
2022-12-04T18:59:25.330Z,20.13
2022-12-04T19:01:53.725Z,20.20
2022-12-04T19:04:23.875Z,18.40
2022-12-04T19:06:54.565Z,20.70
2022-12-04T19:09:47.125Z,20.13
2022-12-04T19:12:13.162Z,19.43
2022-12-04T19:14:40.362Z,19.70
2022-12-04T19:17:07.715Z,20.07
2022-12-04T19:19:34.632Z,20.00
2022-12-04T19:22:02.198Z,19.23
2022-12-04T19:24:29.203Z,19.53
2022-12-04T19:26:56.259Z,18.30
2022-12-04T19:29:23.274Z,18.60
2022-12-04T19:31:52.449Z,17.80
2022-12-04T19:34:23.101Z,17.97
2022-12-04T19:36:50.103Z,17.50
2022-12-04T19:39:17.027Z,18.47
2022-12-04T19:41:47.252Z,18.07
2022-12-04T19:44:46.894Z,18.93
2022-12-04T19:47:01.439Z,19.03
2022-12-04T19:49:29.200Z,17.10
2022-12-04T19:51:56.071Z,17.73
2022-12-04T19:54:23.782Z,18.10
2022-12-04T19:56:52.578Z,17.63
2022-12-04T19:59:20.642Z,18.17
2022-12-04T20:01:48.050Z,17.43
2022-12-04T20:04:15.085Z,16.93
2022-12-04T20:06:45.519Z,17.37
2022-12-04T20:09:21.962Z,17.73
2022-12-04T20:11:49.448Z,17.77
2022-12-04T20:14:16.465Z,17.30
2022-12-04T20:16:43.544Z,16.77
2022-12-04T20:19:15.827Z,17.87
2022-12-04T20:21:44.412Z,17.20
2022-12-04T20:24:15.492Z,18.37
2022-12-04T20:26:44.196Z,18.00
2022-12-04T20:29:14.583Z,19.03
2022-12-04T20:31:45.140Z,17.90
2022-12-04T20:34:16.381Z,18.60
2022-12-04T20:36:45.721Z,18.03
2022-12-04T20:39:14.445Z,17.50
2022-12-04T20:41:41.766Z,16.33
2022-12-04T20:44:13.432Z,17.30
2022-12-04T20:46:42.363Z,16.03
2022-12-04T20:49:20.729Z,17.67
2022-12-04T20:51:48.995Z,18.73
2022-12-04T20:54:19.118Z,17.97
2022-12-04T20:56:48.645Z,18.17
2022-12-04T20:59:18.295Z,18.13
2022-12-04T21:01:45.538Z,16.00
2022-12-04T21:04:13.059Z,17.47
2022-12-04T21:06:41.671Z,17.17
2022-12-04T21:09:16.451Z,17.23
2022-12-04T21:11:53.084Z,17.30
2022-12-04T21:14:49.022Z,17.37
2022-12-04T21:17:19.262Z,16.60
2022-12-04T21:19:49.367Z,16.27
2022-12-04T21:22:18.114Z,15.83
2022-12-04T21:24:45.093Z,16.27
2022-12-04T21:27:18.862Z,17.90
2022-12-04T21:29:48.641Z,17.00
2022-12-04T21:32:16.025Z,16.27
2022-12-04T21:34:43.084Z,15.77
2022-12-04T21:37:09.991Z,16.40
2022-12-04T21:39:37.233Z,17.67
2022-12-04T21:42:22.757Z,18.00
2022-12-04T21:44:49.792Z,17.33
2022-12-04T21:47:16.819Z,16.73
2022-12-04T21:49:43.694Z,18.13
2022-12-04T21:52:10.688Z,17.37
2022-12-04T21:54:37.578Z,16.93
2022-12-04T21:57:04.558Z,18.70
2022-12-04T21:59:31.513Z,17.57
2022-12-04T22:01:58.716Z,15.87
2022-12-04T22:04:25.794Z,15.70
2022-12-04T22:06:52.701Z,18.63
2022-12-04T22:09:19.933Z,18.07
2022-12-04T22:11:47.509Z,17.33
2022-12-04T22:14:15.469Z,16.90
2022-12-04T22:16:43.404Z,16.93
2022-12-04T22:19:12.348Z,18.13
2022-12-04T22:21:39.678Z,17.03
2022-12-04T22:24:07.792Z,15.13
2022-12-04T22:26:34.833Z,16.63
2022-12-04T22:29:11.191Z,17.33
2022-12-04T22:31:49.072Z,17.10
2022-12-04T22:34:15.974Z,17.40
2022-12-04T22:36:42.885Z,16.90
2022-12-04T22:39:10.726Z,15.70
2022-12-04T22:41:38.890Z,17.30
2022-12-04T22:44:06.708Z,15.73
2022-12-04T22:46:34.302Z,15.47
2022-12-04T22:49:01.329Z,16.00
2022-12-04T22:51:28.688Z,16.10
2022-12-04T22:53:58.316Z,16.00
2022-12-04T22:56:31.957Z,17.50
2022-12-04T22:59:00.194Z,15.57
2022-12-04T23:01:30.872Z,16.80
2022-12-04T23:03:58.517Z,17.30
2022-12-04T23:06:30.022Z,15.70
2022-12-04T23:09:06.466Z,16.30
2022-12-04T23:11:34.351Z,15.30
2022-12-04T23:14:05.206Z,16.40
2022-12-04T23:16:35.647Z,16.87
2022-12-04T23:19:03.576Z,15.47
2022-12-04T23:21:30.814Z,17.77
2022-12-04T23:23:57.806Z,16.40
2022-12-04T23:26:31.697Z,16.17
2022-12-04T23:28:59.381Z,17.80
2022-12-04T23:31:26.404Z,15.00
2022-12-04T23:33:53.700Z,15.90
2022-12-04T23:36:21.157Z,16.10
2022-12-04T23:38:48.486Z,17.70
2022-12-04T23:41:30.211Z,16.23
2022-12-04T23:43:57.890Z,16.37
2022-12-04T23:46:31.225Z,16.73
2022-12-04T23:48:59.738Z,15.83
2022-12-04T23:51:27.458Z,16.63
2022-12-04T23:53:54.690Z,16.30
2022-12-04T23:56:27.698Z,17.43
2022-12-04T23:58:57.200Z,16.30
